sensor_id;sensor_type;location;lat;lon;timestamp;pressure;altitude;pressure_sealevel;temperature;humidity
39487;BME280;25173;50.430;18.926;2023-05-24T00:00:15;97898.34;;;19.05;72.96
39487;BME280;25173;50.430;18.926;2023-05-24T00:03:16;97899.03;;;19.02;73.09
39487;BME280;25173;50.430;18.926;2023-05-24T00:06:19;97902.66;;;18.93;73.07
39487;BME280;25173;50.430;18.926;2023-05-24T00:09:19;97905.13;;;18.86;73.24
39487;BME280;25173;50.430;18.926;2023-05-24T00:12:20;97904.06;;;18.79;73.40
39487;BME280;25173;50.430;18.926;2023-05-24T00:15:27;97907.66;;;18.71;73.75
39487;BME280;25173;50.430;18.926;2023-05-24T00:18:28;97903.53;;;18.56;74.01
39487;BME280;25173;50.430;18.926;2023-05-24T00:21:31;97908.22;;;18.47;74.13
39487;BME280;25173;50.430;18.926;2023-05-24T00:24:34;97903.91;;;18.37;74.67
39487;BME280;25173;50.430;18.926;2023-05-24T00:27:44;97910.91;;;18.35;74.30
39487;BME280;25173;50.430;18.926;2023-05-24T00:30:44;97908.66;;;18.28;74.79
39487;BME280;25173;50.430;18.926;2023-05-24T00:33:45;97903.16;;;18.19;74.96
39487;BME280;25173;50.430;18.926;2023-05-24T00:36:46;97900.44;;;18.11;75.56
39487;BME280;25173;50.430;18.926;2023-05-24T00:39:47;97907.63;;;17.95;75.97
39487;BME280;25173;50.430;18.926;2023-05-24T00:42:48;97907.63;;;17.86;75.95
39487;BME280;25173;50.430;18.926;2023-05-24T00:46:23;97914.00;;;17.78;77.23
39487;BME280;25173;50.430;18.926;2023-05-24T00:49:54;97917.72;;;17.65;76.56
39487;BME280;25173;50.430;18.926;2023-05-24T00:52:56;97919.66;;;17.56;76.87
39487;BME280;25173;50.430;18.926;2023-05-24T00:56:00;97919.81;;;17.51;77.03
39487;BME280;25173;50.430;18.926;2023-05-24T00:59:02;97927.44;;;17.45;77.37
39487;BME280;25173;50.430;18.926;2023-05-24T01:02:02;97925.66;;;17.40;77.69
39487;BME280;25173;50.430;18.926;2023-05-24T01:05:03;97929.53;;;17.39;77.25
39487;BME280;25173;50.430;18.926;2023-05-24T01:11:49;97923.88;;;17.36;78.41
39487;BME280;25173;50.430;18.926;2023-05-24T01:15:03;97931.00;;;17.37;77.74
39487;BME280;25173;50.430;18.926;2023-05-24T01:18:23;97927.44;;;17.36;78.59
39487;BME280;25173;50.430;18.926;2023-05-24T01:22:00;97933.75;;;17.37;78.53
39487;BME280;25173;50.430;18.926;2023-05-24T01:25:21;97941.03;;;17.33;78.22
39487;BME280;25173;50.430;18.926;2023-05-24T01:28:26;97935.03;;;17.31;78.08
39487;BME280;25173;50.430;18.926;2023-05-24T01:31:45;97932.78;;;17.33;77.99
39487;BME280;25173;50.430;18.926;2023-05-24T01:35:04;97936.00;;;17.43;77.56
39487;BME280;25173;50.430;18.926;2023-05-24T01:38:24;97946.22;;;17.52;77.41
39487;BME280;25173;50.430;18.926;2023-05-24T01:48:32;97941.34;;;17.57;77.76
39487;BME280;25173;50.430;18.926;2023-05-24T01:51:39;97948.81;;;17.65;76.85
39487;BME280;25173;50.430;18.926;2023-05-24T01:54:44;97949.31;;;17.67;76.89
39487;BME280;25173;50.430;18.926;2023-05-24T01:57:49;97950.78;;;17.65;76.84
39487;BME280;25173;50.430;18.926;2023-05-24T02:00:51;97954.19;;;17.70;76.68
39487;BME280;25173;50.430;18.926;2023-05-24T02:03:54;97951.75;;;17.77;76.56
39487;BME280;25173;50.430;18.926;2023-05-24T02:06:54;97953.34;;;17.78;76.39
39487;BME280;25173;50.430;18.926;2023-05-24T02:09:55;97958.84;;;17.78;76.29
39487;BME280;25173;50.430;18.926;2023-05-24T02:12:56;97957.09;;;17.74;76.45
39487;BME280;25173;50.430;18.926;2023-05-24T02:15:56;97950.94;;;17.68;76.45
39487;BME280;25173;50.430;18.926;2023-05-24T02:18:59;97953.69;;;17.68;76.58
39487;BME280;25173;50.430;18.926;2023-05-24T02:21:59;97960.66;;;17.66;76.43
39487;BME280;25173;50.430;18.926;2023-05-24T02:25:00;97956.13;;;17.70;76.51
39487;BME280;25173;50.430;18.926;2023-05-24T02:28:01;97971.19;;;17.72;76.47
39487;BME280;25173;50.430;18.926;2023-05-24T02:31:02;97962.59;;;17.74;76.41
39487;BME280;25173;50.430;18.926;2023-05-24T02:34:02;97978.31;;;17.82;76.11
39487;BME280;25173;50.430;18.926;2023-05-24T02:37:03;97974.91;;;17.85;75.93
39487;BME280;25173;50.430;18.926;2023-05-24T02:40:04;97975.72;;;17.86;75.80
39487;BME280;25173;50.430;18.926;2023-05-24T02:43:05;97972.81;;;17.82;75.86
39487;BME280;25173;50.430;18.926;2023-05-24T02:46:06;97980.25;;;17.73;76.14
39487;BME280;25173;50.430;18.926;2023-05-24T02:49:25;97978.63;;;17.72;76.19
39487;BME280;25173;50.430;18.926;2023-05-24T02:52:44;97973.94;;;17.64;76.33
39487;BME280;25173;50.430;18.926;2023-05-24T02:56:04;97977.16;;;17.57;76.46
39487;BME280;25173;50.430;18.926;2023-05-24T02:59:25;97973.13;;;17.55;76.61
39487;BME280;25173;50.430;18.926;2023-05-24T03:02:47;97972.94;;;17.60;76.59
39487;BME280;25173;50.430;18.926;2023-05-24T03:06:09;97987.25;;;17.62;76.33
39487;BME280;25173;50.430;18.926;2023-05-24T03:09:31;97980.25;;;17.64;76.58
39487;BME280;25173;50.430;18.926;2023-05-24T03:12:52;97974.38;;;17.57;76.78
39487;BME280;25173;50.430;18.926;2023-05-24T03:16:11;97987.19;;;17.53;76.93
39487;BME280;25173;50.430;18.926;2023-05-24T03:19:30;97987.03;;;17.50;76.71
39487;BME280;25173;50.430;18.926;2023-05-24T03:22:50;97981.06;;;17.48;76.77
39487;BME280;25173;50.430;18.926;2023-05-24T03:26:10;97991.72;;;17.49;76.83
39487;BME280;25173;50.430;18.926;2023-05-24T03:29:32;97991.59;;;17.54;76.85
39487;BME280;25173;50.430;18.926;2023-05-24T03:32:58;97992.03;;;17.56;76.74
39487;BME280;25173;50.430;18.926;2023-05-24T03:36:18;97995.59;;;17.57;76.72
39487;BME280;25173;50.430;18.926;2023-05-24T03:39:21;97992.22;;;17.60;76.75
39487;BME280;25173;50.430;18.926;2023-05-24T03:42:30;97995.66;;;17.65;76.48
39487;BME280;25173;50.430;18.926;2023-05-24T03:45:31;97995.00;;;17.68;76.51
39487;BME280;25173;50.430;18.926;2023-05-24T03:48:32;97998.91;;;17.76;76.49
39487;BME280;25173;50.430;18.926;2023-05-24T03:51:32;98001.00;;;17.79;76.20
39487;BME280;25173;50.430;18.926;2023-05-24T03:54:33;97996.63;;;17.78;76.30
39487;BME280;25173;50.430;18.926;2023-05-24T03:57:34;97997.78;;;17.77;76.49
39487;BME280;25173;50.430;18.926;2023-05-24T04:00:35;98002.47;;;17.85;76.17
39487;BME280;25173;50.430;18.926;2023-05-24T04:03:54;98007.16;;;17.84;76.17
39487;BME280;25173;50.430;18.926;2023-05-24T04:07:14;98007.97;;;17.85;76.17
39487;BME280;25173;50.430;18.926;2023-05-24T04:10:15;98007.31;;;17.88;75.85
39487;BME280;25173;50.430;18.926;2023-05-24T04:13:16;98009.44;;;17.91;75.76
39487;BME280;25173;50.430;18.926;2023-05-24T04:16:17;98016.88;;;17.91;75.81
39487;BME280;25173;50.430;18.926;2023-05-24T04:19:17;98022.53;;;17.94;75.74
39487;BME280;25173;50.430;18.926;2023-05-24T04:22:18;98020.75;;;17.90;75.48
39487;BME280;25173;50.430;18.926;2023-05-24T04:25:19;98034.88;;;17.71;75.47
39487;BME280;25173;50.430;18.926;2023-05-24T04:28:20;98042.09;;;17.50;75.85
39487;BME280;25173;50.430;18.926;2023-05-24T04:31:21;98039.97;;;17.29;76.01
39487;BME280;25173;50.430;18.926;2023-05-24T04:34:22;98048.50;;;17.11;76.34
39487;BME280;25173;50.430;18.926;2023-05-24T04:37:24;98050.38;;;16.93;76.79
39487;BME280;25173;50.430;18.926;2023-05-24T04:40:24;98052.78;;;16.86;76.85
39487;BME280;25173;50.430;18.926;2023-05-24T04:43:25;98059.56;;;16.80;76.88
39487;BME280;25173;50.430;18.926;2023-05-24T04:46:26;98078.97;;;16.75;76.85
39487;BME280;25173;50.430;18.926;2023-05-24T04:49:27;98069.53;;;16.67;76.89
39487;BME280;25173;50.430;18.926;2023-05-24T04:52:27;98075.56;;;16.55;76.96
39487;BME280;25173;50.430;18.926;2023-05-24T04:55:29;98085.22;;;16.44;77.16
39487;BME280;25173;50.430;18.926;2023-05-24T04:58:30;98072.25;;;16.36;77.27
39487;BME280;25173;50.430;18.926;2023-05-24T05:01:31;98092.72;;;16.30;77.39
39487;BME280;25173;50.430;18.926;2023-05-24T05:04:32;98086.34;;;16.21;77.25
39487;BME280;25173;50.430;18.926;2023-05-24T05:07:32;98088.59;;;16.19;77.55
39487;BME280;25173;50.430;18.926;2023-05-24T05:10:34;98095.06;;;16.23;77.29
39487;BME280;25173;50.430;18.926;2023-05-24T05:13:35;98103.22;;;16.28;77.38
39487;BME280;25173;50.430;18.926;2023-05-24T05:16:36;98108.72;;;16.28;76.93
39487;BME280;25173;50.430;18.926;2023-05-24T05:19:37;98116.31;;;16.31;76.89
39487;BME280;25173;50.430;18.926;2023-05-24T05:22:37;98120.22;;;16.30;76.72
39487;BME280;25173;50.430;18.926;2023-05-24T05:25:38;98124.56;;;16.31;76.53
39487;BME280;25173;50.430;18.926;2023-05-24T05:28:38;98132.34;;;16.29;76.42
39487;BME280;25173;50.430;18.926;2023-05-24T05:31:39;98131.44;;;16.20;76.50
39487;BME280;25173;50.430;18.926;2023-05-24T05:34:40;98134.63;;;16.13;76.69
39487;BME280;25173;50.430;18.926;2023-05-24T05:37:59;98153.19;;;16.08;76.66
39487;BME280;25173;50.430;18.926;2023-05-24T05:41:19;98140.56;;;16.07;76.58
39487;BME280;25173;50.430;18.926;2023-05-24T05:44:20;98143.59;;;16.05;76.53
39487;BME280;25173;50.430;18.926;2023-05-24T05:47:20;98144.03;;;15.99;76.39
39487;BME280;25173;50.430;18.926;2023-05-24T05:50:21;98157.09;;;15.93;76.48
39487;BME280;25173;50.430;18.926;2023-05-24T05:53:21;98166.13;;;15.80;76.74
39487;BME280;25173;50.430;18.926;2023-05-24T05:56:22;98160.16;;;15.64;76.96
39487;BME280;25173;50.430;18.926;2023-05-24T05:59:23;98165.66;;;15.64;77.32
39487;BME280;25173;50.430;18.926;2023-05-24T06:02:23;98170.97;;;15.61;77.28
39487;BME280;25173;50.430;18.926;2023-05-24T06:05:27;98182.25;;;15.59;77.31
39487;BME280;25173;50.430;18.926;2023-05-24T06:08:27;98179.66;;;15.49;77.30
39487;BME280;25173;50.430;18.926;2023-05-24T06:11:30;98180.41;;;15.41;77.59
39487;BME280;25173;50.430;18.926;2023-05-24T06:14:31;98177.25;;;15.34;77.58
39487;BME280;25173;50.430;18.926;2023-05-24T06:17:33;98188.72;;;15.22;77.99
39487;BME280;25173;50.430;18.926;2023-05-24T06:20:34;98192.25;;;15.09;78.47
39487;BME280;25173;50.430;18.926;2023-05-24T06:23:36;98197.31;;;15.02;78.37
39487;BME280;25173;50.430;18.926;2023-05-24T06:26:37;98198.22;;;14.97;78.64
39487;BME280;25173;50.430;18.926;2023-05-24T06:29:37;98210.75;;;15.03;78.76
39487;BME280;25173;50.430;18.926;2023-05-24T06:32:38;98218.34;;;15.06;78.86
39487;BME280;25173;50.430;18.926;2023-05-24T06:35:39;98228.09;;;15.12;78.83
39487;BME280;25173;50.430;18.926;2023-05-24T06:38:39;98230.44;;;15.19;78.55
39487;BME280;25173;50.430;18.926;2023-05-24T06:41:40;98232.59;;;15.08;78.58
39487;BME280;25173;50.430;18.926;2023-05-24T06:44:45;98233.28;;;15.00;78.70
39487;BME280;25173;50.430;18.926;2023-05-24T06:48:04;98225.88;;;15.01;79.06
39487;BME280;25173;50.430;18.926;2023-05-24T06:51:24;98234.47;;;14.94;79.19
39487;BME280;25173;50.430;18.926;2023-05-24T06:54:24;98234.09;;;15.01;79.45
39487;BME280;25173;50.430;18.926;2023-05-24T06:57:25;98235.22;;;15.13;79.28
39487;BME280;25173;50.430;18.926;2023-05-24T07:00:26;98241.34;;;15.24;79.02
39487;BME280;25173;50.430;18.926;2023-05-24T07:03:27;98241.97;;;15.35;78.46
39487;BME280;25173;50.430;18.926;2023-05-24T07:06:28;98251.81;;;15.36;78.38
39487;BME280;25173;50.430;18.926;2023-05-24T07:09:28;98252.66;;;15.36;78.38
39487;BME280;25173;50.430;18.926;2023-05-24T07:12:29;98255.09;;;15.38;78.31
39487;BME280;25173;50.430;18.926;2023-05-24T07:15:31;98256.91;;;15.42;78.03
39487;BME280;25173;50.430;18.926;2023-05-24T07:18:32;98271.81;;;15.55;78.09
39487;BME280;25173;50.430;18.926;2023-05-24T07:21:32;98270.91;;;15.73;77.43
39487;BME280;25173;50.430;18.926;2023-05-24T07:24:33;98277.09;;;15.79;77.02
39487;BME280;25173;50.430;18.926;2023-05-24T07:27:34;98282.31;;;15.80;76.64
39487;BME280;25173;50.430;18.926;2023-05-24T07:30:35;98287.38;;;15.73;76.13
39487;BME280;25173;50.430;18.926;2023-05-24T07:33:36;98293.69;;;15.74;76.44
39487;BME280;25173;50.430;18.926;2023-05-24T07:36:37;98296.84;;;15.67;76.01
39487;BME280;25173;50.430;18.926;2023-05-24T07:39:40;98297.66;;;15.68;75.95
39487;BME280;25173;50.430;18.926;2023-05-24T07:42:40;98301.75;;;15.70;75.71
39487;BME280;25173;50.430;18.926;2023-05-24T07:45:41;98304.38;;;15.62;75.40
39487;BME280;25173;50.430;18.926;2023-05-24T07:48:42;98300.41;;;15.54;75.61
39487;BME280;25173;50.430;18.926;2023-05-24T07:51:42;98304.00;;;15.49;75.55
39487;BME280;25173;50.430;18.926;2023-05-24T07:54:43;98307.56;;;15.50;75.65
39487;BME280;25173;50.430;18.926;2023-05-24T07:57:43;98311.41;;;15.49;75.60
39487;BME280;25173;50.430;18.926;2023-05-24T08:00:51;98318.53;;;15.50;75.26
39487;BME280;25173;50.430;18.926;2023-05-24T08:04:21;98317.81;;;15.44;75.35
39487;BME280;25173;50.430;18.926;2023-05-24T08:07:23;98328.22;;;15.47;75.17
39487;BME280;25173;50.430;18.926;2023-05-24T08:10:23;98325.66;;;15.51;74.87
39487;BME280;25173;50.430;18.926;2023-05-24T08:13:24;98327.22;;;15.57;74.64
39487;BME280;25173;50.430;18.926;2023-05-24T08:16:25;98329.50;;;15.69;74.40
39487;BME280;25173;50.430;18.926;2023-05-24T08:19:44;98342.72;;;15.80;73.77
39487;BME280;25173;50.430;18.926;2023-05-24T08:22:45;98346.09;;;15.77;73.49
39487;BME280;25173;50.430;18.926;2023-05-24T08:25:47;98344.34;;;15.68;73.14
39487;BME280;25173;50.430;18.926;2023-05-24T08:28:48;98352.16;;;15.61;73.05
39487;BME280;25173;50.430;18.926;2023-05-24T08:31:48;98349.59;;;15.64;73.47
39487;BME280;25173;50.430;18.926;2023-05-24T08:34:49;98349.44;;;15.74;73.13
39487;BME280;25173;50.430;18.926;2023-05-24T08:37:50;98346.97;;;15.73;72.70
39487;BME280;25173;50.430;18.926;2023-05-24T08:40:50;98360.53;;;15.69;72.60
39487;BME280;25173;50.430;18.926;2023-05-24T08:43:52;98365.91;;;15.74;72.55
39487;BME280;25173;50.430;18.926;2023-05-24T08:46:53;98360.63;;;15.78;72.33
39487;BME280;25173;50.430;18.926;2023-05-24T08:49:54;98371.22;;;15.84;72.26
39487;BME280;25173;50.430;18.926;2023-05-24T08:52:56;98380.47;;;15.88;72.02
39487;BME280;25173;50.430;18.926;2023-05-24T08:55:58;98374.47;;;15.86;71.75
39487;BME280;25173;50.430;18.926;2023-05-24T08:58:59;98373.63;;;15.86;71.87
39487;BME280;25173;50.430;18.926;2023-05-24T09:02:00;98378.53;;;15.89;71.71
39487;BME280;25173;50.430;18.926;2023-05-24T09:05:02;98384.16;;;15.98;71.65
39487;BME280;25173;50.430;18.926;2023-05-24T09:08:04;98394.97;;;16.08;71.28
39487;BME280;25173;50.430;18.926;2023-05-24T09:11:06;98391.41;;;16.07;70.71
39487;BME280;25173;50.430;18.926;2023-05-24T09:14:07;98398.00;;;16.06;70.74
39487;BME280;25173;50.430;18.926;2023-05-24T09:17:08;98407.97;;;16.16;70.73
39487;BME280;25173;50.430;18.926;2023-05-24T09:20:09;98403.91;;;16.27;70.46
39487;BME280;25173;50.430;18.926;2023-05-24T09:23:11;98413.56;;;16.38;70.31
39487;BME280;25173;50.430;18.926;2023-05-24T09:26:12;98424.06;;;16.36;69.88
39487;BME280;25173;50.430;18.926;2023-05-24T09:29:12;98432.00;;;16.24;69.75
39487;BME280;25173;50.430;18.926;2023-05-24T09:32:16;98434.84;;;16.19;70.05
39487;BME280;25173;50.430;18.926;2023-05-24T09:35:16;98431.78;;;16.07;69.36
39487;BME280;25173;50.430;18.926;2023-05-24T09:38:17;98428.69;;;15.95;69.72
39487;BME280;25173;50.430;18.926;2023-05-24T09:41:19;98435.13;;;16.04;69.73
39487;BME280;25173;50.430;18.926;2023-05-24T09:44:23;98431.38;;;16.00;69.19
39487;BME280;25173;50.430;18.926;2023-05-24T09:47:32;98432.38;;;16.04;69.21
39487;BME280;25173;50.430;18.926;2023-05-24T09:50:34;98441.75;;;16.03;68.97
39487;BME280;25173;50.430;18.926;2023-05-24T09:53:35;98432.28;;;16.09;69.12
39487;BME280;25173;50.430;18.926;2023-05-24T09:56:38;98440.53;;;16.09;68.67
39487;BME280;25173;50.430;18.926;2023-05-24T09:59:39;98436.66;;;16.10;68.63
39487;BME280;25173;50.430;18.926;2023-05-24T10:02:41;98427.13;;;16.07;68.97
39487;BME280;25173;50.430;18.926;2023-05-24T10:05:45;98426.06;;;16.03;68.54
39487;BME280;25173;50.430;18.926;2023-05-24T10:08:47;98434.94;;;16.00;68.67
39487;BME280;25173;50.430;18.926;2023-05-24T10:11:50;98437.47;;;15.97;69.31
39487;BME280;25173;50.430;18.926;2023-05-24T10:14:52;98446.84;;;16.23;69.22
39487;BME280;25173;50.430;18.926;2023-05-24T10:17:57;98447.06;;;16.40;68.31
39487;BME280;25173;50.430;18.926;2023-05-24T10:21:00;98445.06;;;16.59;68.11
39487;BME280;25173;50.430;18.926;2023-05-24T10:24:01;98446.59;;;16.65;67.36
39487;BME280;25173;50.430;18.926;2023-05-24T10:27:05;98455.16;;;16.64;67.42
39487;BME280;25173;50.430;18.926;2023-05-24T10:33:23;98459.31;;;16.89;67.28
39487;BME280;25173;50.430;18.926;2023-05-24T10:36:24;98463.16;;;17.01;66.95
39487;BME280;25173;50.430;18.926;2023-05-24T10:39:28;98465.88;;;17.15;67.02
39487;BME280;25173;50.430;18.926;2023-05-24T10:42:32;98466.06;;;17.32;66.56
39487;BME280;25173;50.430;18.926;2023-05-24T10:45:51;98456.63;;;17.47;66.08
39487;BME280;25173;50.430;18.926;2023-05-24T10:48:59;98458.63;;;17.55;65.62
39487;BME280;25173;50.430;18.926;2023-05-24T10:52:01;98460.53;;;17.68;65.55
39487;BME280;25173;50.430;18.926;2023-05-24T10:55:07;98463.66;;;17.98;65.66
39487;BME280;25173;50.430;18.926;2023-05-24T10:58:10;98461.69;;;18.20;64.75
39487;BME280;25173;50.430;18.926;2023-05-24T11:01:30;98464.44;;;18.20;62.98
39487;BME280;25173;50.430;18.926;2023-05-24T11:04:32;98461.88;;;18.33;64.12
39487;BME280;25173;50.430;18.926;2023-05-24T11:07:40;98466.69;;;18.49;63.08
39487;BME280;25173;50.430;18.926;2023-05-24T11:10:42;98464.00;;;18.58;63.29
39487;BME280;25173;50.430;18.926;2023-05-24T11:13:45;98462.78;;;18.81;63.31
39487;BME280;25173;50.430;18.926;2023-05-24T11:16:47;98473.03;;;19.07;63.22
39487;BME280;25173;50.430;18.926;2023-05-24T11:19:50;98476.47;;;19.04;61.64
39487;BME280;25173;50.430;18.926;2023-05-24T11:22:52;98474.81;;;18.94;61.75
39487;BME280;25173;50.430;18.926;2023-05-24T11:25:53;98475.88;;;18.76;61.70
39487;BME280;25173;50.430;18.926;2023-05-24T11:28:54;98472.03;;;18.54;61.83
39487;BME280;25173;50.430;18.926;2023-05-24T11:31:59;98467.91;;;18.35;62.03
39487;BME280;25173;50.430;18.926;2023-05-24T11:35:05;98470.16;;;18.33;62.53
39487;BME280;25173;50.430;18.926;2023-05-24T11:38:12;98468.25;;;18.42;62.57
39487;BME280;25173;50.430;18.926;2023-05-24T11:41:12;98469.28;;;18.54;61.90
39487;BME280;25173;50.430;18.926;2023-05-24T11:44:16;98476.44;;;18.55;61.78
39487;BME280;25173;50.430;18.926;2023-05-24T11:47:19;98468.88;;;18.39;61.42
39487;BME280;25173;50.430;18.926;2023-05-24T11:50:23;98470.16;;;18.33;62.04
39487;BME280;25173;50.430;18.926;2023-05-24T11:53:44;98458.50;;;18.36;62.32
39487;BME280;25173;50.430;18.926;2023-05-24T11:56:46;98461.81;;;18.55;62.26
39487;BME280;25173;50.430;18.926;2023-05-24T11:59:47;98467.91;;;18.66;61.88
39487;BME280;25173;50.430;18.926;2023-05-24T12:02:48;98463.41;;;18.78;61.38
39487;BME280;25173;50.430;18.926;2023-05-24T12:05:49;98460.16;;;18.85;60.82
39487;BME280;25173;50.430;18.926;2023-05-24T12:08:49;98463.44;;;18.95;61.03
39487;BME280;25173;50.430;18.926;2023-05-24T12:11:51;98468.50;;;19.02;61.07
39487;BME280;25173;50.430;18.926;2023-05-24T12:14:54;98475.63;;;18.94;59.90
39487;BME280;25173;50.430;18.926;2023-05-24T12:17:58;98470.34;;;18.67;60.34
39487;BME280;25173;50.430;18.926;2023-05-24T12:20:59;98470.63;;;18.57;60.85
39487;BME280;25173;50.430;18.926;2023-05-24T12:24:18;98464.06;;;18.53;60.67
39487;BME280;25173;50.430;18.926;2023-05-24T12:27:24;98464.47;;;18.60;61.11
39487;BME280;25173;50.430;18.926;2023-05-24T12:30:25;98474.59;;;18.73;61.00
39487;BME280;25173;50.430;18.926;2023-05-24T12:33:26;98473.66;;;18.86;60.90
39487;BME280;25173;50.430;18.926;2023-05-24T12:36:27;98473.94;;;18.76;60.21
39487;BME280;25173;50.430;18.926;2023-05-24T12:39:29;98476.22;;;18.74;60.52
39487;BME280;25173;50.430;18.926;2023-05-24T12:42:34;98469.22;;;18.77;59.49
39487;BME280;25173;50.430;18.926;2023-05-24T12:45:36;98475.06;;;18.67;60.32
39487;BME280;25173;50.430;18.926;2023-05-24T12:48:36;98473.28;;;18.71;60.81
39487;BME280;25173;50.430;18.926;2023-05-24T12:51:37;98477.38;;;18.90;60.53
39487;BME280;25173;50.430;18.926;2023-05-24T12:54:37;98470.72;;;18.91;59.81
39487;BME280;25173;50.430;18.926;2023-05-24T12:57:38;98470.53;;;18.79;59.96
39487;BME280;25173;50.430;18.926;2023-05-24T13:00:40;98475.22;;;18.70;60.14
39487;BME280;25173;50.430;18.926;2023-05-24T13:03:40;98466.94;;;18.70;60.56
39487;BME280;25173;50.430;18.926;2023-05-24T13:06:42;98474.09;;;18.71;60.11
39487;BME280;25173;50.430;18.926;2023-05-24T13:09:42;98469.22;;;18.77;59.77
39487;BME280;25173;50.430;18.926;2023-05-24T13:12:43;98471.84;;;18.73;59.73
39487;BME280;25173;50.430;18.926;2023-05-24T13:15:44;98467.78;;;18.79;59.76
39487;BME280;25173;50.430;18.926;2023-05-24T13:18:45;98472.19;;;18.80;59.36
39487;BME280;25173;50.430;18.926;2023-05-24T13:21:46;98467.78;;;18.79;59.46
39487;BME280;25173;50.430;18.926;2023-05-24T13:24:46;98468.59;;;18.80;59.40
39487;BME280;25173;50.430;18.926;2023-05-24T13:27:47;98473.47;;;18.74;59.37
39487;BME280;25173;50.430;18.926;2023-05-24T13:30:48;98477.34;;;18.73;59.39
39487;BME280;25173;50.430;18.926;2023-05-24T13:33:49;98472.69;;;18.51;59.58
39487;BME280;25173;50.430;18.926;2023-05-24T13:36:52;98473.50;;;18.52;59.85
39487;BME280;25173;50.430;18.926;2023-05-24T13:39:53;98469.13;;;18.51;59.89
39487;BME280;25173;50.430;18.926;2023-05-24T13:42:55;98470.31;;;18.58;59.94
39487;BME280;25173;50.430;18.926;2023-05-24T13:45:56;98474.72;;;18.59;59.74
39487;BME280;25173;50.430;18.926;2023-05-24T13:48:58;98472.63;;;18.65;60.14
39487;BME280;25173;50.430;18.926;2023-05-24T13:51:59;98474.44;;;18.78;59.93
39487;BME280;25173;50.430;18.926;2023-05-24T13:55:02;98473.31;;;18.79;59.90
39487;BME280;25173;50.430;18.926;2023-05-24T13:58:04;98473.63;;;18.78;59.78
39487;BME280;25173;50.430;18.926;2023-05-24T14:01:05;98475.44;;;18.91;59.70
39487;BME280;25173;50.430;18.926;2023-05-24T14:04:05;98474.47;;;18.87;59.28
39487;BME280;25173;50.430;18.926;2023-05-24T14:07:06;98478.16;;;18.82;59.48
39487;BME280;25173;50.430;18.926;2023-05-24T14:10:08;98476.56;;;18.81;59.35
39487;BME280;25173;50.430;18.926;2023-05-24T14:13:09;98475.41;;;18.74;59.51
39487;BME280;25173;50.430;18.926;2023-05-24T14:16:10;98478.66;;;18.84;59.32
39487;BME280;25173;50.430;18.926;2023-05-24T14:19:11;98475.41;;;18.82;59.27
39487;BME280;25173;50.430;18.926;2023-05-24T14:22:11;98477.66;;;18.72;59.00
39487;BME280;25173;50.430;18.926;2023-05-24T14:25:12;98476.03;;;18.71;59.47
39487;BME280;25173;50.430;18.926;2023-05-24T14:28:13;98473.94;;;18.76;59.27
39487;BME280;25173;50.430;18.926;2023-05-24T14:31:13;98475.69;;;18.64;59.34
39487;BME280;25173;50.430;18.926;2023-05-24T14:34:14;98483.06;;;18.54;59.42
39487;BME280;25173;50.430;18.926;2023-05-24T14:37:16;98486.13;;;18.44;59.74
39487;BME280;25173;50.430;18.926;2023-05-24T14:40:22;98475.53;;;18.38;60.28
39487;BME280;25173;50.430;18.926;2023-05-24T14:43:23;98484.00;;;18.41;60.03
39487;BME280;25173;50.430;18.926;2023-05-24T14:46:23;98476.84;;;18.40;60.11
39487;BME280;25173;50.430;18.926;2023-05-24T14:49:24;98477.66;;;18.41;60.27
39487;BME280;25173;50.430;18.926;2023-05-24T14:52:24;98478.59;;;18.28;60.03
39487;BME280;25173;50.430;18.926;2023-05-24T14:55:25;98479.81;;;18.13;60.51
39487;BME280;25173;50.430;18.926;2023-05-24T14:58:26;98475.84;;;18.05;60.48
39487;BME280;25173;50.430;18.926;2023-05-24T15:01:26;98468.53;;;18.01;60.72
39487;BME280;25173;50.430;18.926;2023-05-24T15:04:27;98482.63;;;17.99;60.58
39487;BME280;25173;50.430;18.926;2023-05-24T15:07:27;98480.94;;;17.90;60.66
39487;BME280;25173;50.430;18.926;2023-05-24T15:10:28;98470.22;;;17.88;60.99
39487;BME280;25173;50.430;18.926;2023-05-24T15:13:29;98487.56;;;17.89;61.10
39487;BME280;25173;50.430;18.926;2023-05-24T15:16:30;98474.38;;;17.77;61.02
39487;BME280;25173;50.430;18.926;2023-05-24T15:19:31;98486.25;;;17.64;61.39
39487;BME280;25173;50.430;18.926;2023-05-24T15:22:31;98485.63;;;17.67;61.48
39487;BME280;25173;50.430;18.926;2023-05-24T15:25:33;98476.75;;;17.56;61.56
39487;BME280;25173;50.430;18.926;2023-05-24T15:28:33;98481.72;;;17.45;61.82
39487;BME280;25173;50.430;18.926;2023-05-24T15:31:34;98485.03;;;17.34;61.92
39487;BME280;25173;50.430;18.926;2023-05-24T15:34:35;98481.75;;;17.32;62.07
39487;BME280;25173;50.430;18.926;2023-05-24T15:37:36;98491.56;;;17.24;61.95
39487;BME280;25173;50.430;18.926;2023-05-24T15:40:36;98493.69;;;17.27;62.23
39487;BME280;25173;50.430;18.926;2023-05-24T15:43:37;98497.75;;;17.30;62.18
39487;BME280;25173;50.430;18.926;2023-05-24T15:46:38;98497.34;;;17.36;62.20
39487;BME280;25173;50.430;18.926;2023-05-24T15:49:40;98501.63;;;17.29;62.20
39487;BME280;25173;50.430;18.926;2023-05-24T15:52:41;98506.97;;;17.25;62.32
39487;BME280;25173;50.430;18.926;2023-05-24T15:55:41;98512.56;;;17.20;62.43
39487;BME280;25173;50.430;18.926;2023-05-24T15:58:46;98519.81;;;17.16;62.45
39487;BME280;25173;50.430;18.926;2023-05-24T16:01:46;98518.47;;;17.14;62.57
39487;BME280;25173;50.430;18.926;2023-05-24T16:04:47;98515.44;;;17.01;63.00
39487;BME280;25173;50.430;18.926;2023-05-24T16:07:48;98523.91;;;16.91;63.19
39487;BME280;25173;50.430;18.926;2023-05-24T16:10:55;98519.63;;;16.85;63.31
39487;BME280;25173;50.430;18.926;2023-05-24T16:13:55;98519.44;;;16.82;63.47